Williams, AZ

2:08 AM MST on August 21, 2014 (GMT -0700)
Flagstaff Pulliam | Change Station
CLOSE
Current Station
Airport
Location: Flagstaff,
Elevation: 7011 ft
Nearby Weather Stations

Elev 7011 ft 35.14 °N, 111.67 °W | Updated 11 minutes ago

Scattered Clouds
Scattered Clouds
49 °F
Feels Like 49 °F
N
0
Wind Variable Wind from North

Today
High -- | Low -- °F
--% Chance of Precip.
Yesterday
High -- | Low -- °F
Precip. -- in
5:52 AM 7:10 PM
Waning Crescent, 15% visible
Pressure 30.01 in
Visibility 10.0 miles
Clouds Scattered Clouds 9500 ft
Dew Point 46 °F
Humidity 90%
Rainfall 0.00 in
Snow Depth Not available.
UV 0 out of 12
Pollen 5.10 out of 12
Air Quality Not available.
Flu Activity Not available.
METAR KFLG 210857Z AUTO 00000KT 10SM SCT095 09/08 A3027 RMK AO2 SLP163 T00940078 58002 TSNO $

More Conditions Fewer Conditions

Pressure 30.01 in
Visibility 10.0 miles
Clouds Scattered Clouds 9500 ft
Dew Point 46 °F
Humidity 90%
Rainfall 0.00 in
Snow Depth Not available.
UV 0 out of 12
Pollen 5.10 out of 12
Air Quality Not available.
Flu Activity Not available.
METAR KFLG 210857Z AUTO 00000KT 10SM SCT095 09/08 A3027 RMK AO2 SLP163 T00940078 58002 TSNO $

More Conditions Fewer Conditions

10-Day Weather Forecast

Almanac

Astronomy

Aug. 21, 2014 Rise Set
Actual Time 5:52 AM MST 7:10 PM MST
Civil Twilight 5:26 AM MST 7:36 PM MST
Nautical Twilight 4:54 AM MST 8:08 PM MST
Astronomical Twilight 4:21 AM MST 8:41 PM MST
Moon 2:29 AM MST 4:38 PM MST
Length of Visible Light 14h 10m
Length of Day
13h 17m
Tomorrow will be 2m 1s shorter.
Waning Crescent, 15% of the Moon is Illuminated
Today
Waning Crescent
Aug 25
New
Sep 2
First Quarter
Sep 8
Full
Sep 15
Last Quarter

Today's Extremes

State Highs State Lows

Community

WunderPhotos

Upload Photos

1,745,864 photos uploaded!

Nearby

Snow Depth

Station Depth Elevation
White Horse Lake 1 in 7180 ft
Snowslide Canyon 1 in 9730 ft
Mormon Mountain 0 in 7500 ft
Heber 0 in 7640 ft
Workman Creek 2 in 6900 ft

Earthquake Activity

City Distance Mag. Time & Date
No recent earthquake activity has been reported nearby.
Minimum magnitude displayed is 2.5.

Coastal Water Temperatures

Place Temperature
No Stations Reporting

Nearby Weather Stations